Time;durP1;ratioP1;P1;durP2;ratioP2;P2;SDS_P1;SDS_P2;PMS_P1;PMS_P2;Temp;Humidity;BMP_temperature;BMP_pressure;BME280_temperature;BME280_humidity;BME280_pressure;Samples;Min_cycle;Max_cycle;Signal;HPM_P1;HPM_P2
2022/01/01 00:02:34;;;;;;;41.13;17.80;;;;;;;10.62;100.00;101759.22;10151109;28;20069;-72
2022/01/01 00:07:35;;;;;;;49.53;19.40;;;;;;;10.57;100.00;101757.38;10143339;28;20071;-72
2022/01/01 00:12:31;;;;;;;35.88;16.52;;;;;;;10.60;100.00;101775.94;10133449;28;20118;-71
2022/01/01 00:17:31;;;;;;;40.22;15.63;;;;;;;10.57;100.00;101779.25;10124814;28;20075;-72
2022/01/01 00:22:32;;;;;;;30.58;13.32;;;;;;;10.55;100.00;101792.41;10133358;28;20108;-70
2022/01/01 00:27:28;;;;;;;34.15;12.77;;;;;;;10.59;100.00;101793.47;10117350;28;20453;-71
2022/01/01 00:32:25;;;;;;;34.22;12.43;;;;;;;10.59;100.00;101777.03;10122917;28;20038;-69
2022/01/01 00:37:21;;;;;;;37.83;13.30;;;;;;;10.58;100.00;101786.34;10128856;28;20054;-72
2022/01/01 00:42:18;;;;;;;33.75;13.00;;;;;;;10.62;100.00;101803.00;10126038;28;20129;-71
2022/01/01 00:47:14;;;;;;;33.10;12.82;;;;;;;10.61;100.00;101802.19;10131524;28;20105;-70
2022/01/01 00:52:11;;;;;;;32.67;12.50;;;;;;;10.59;100.00;101809.06;10124210;28;20130;-69
2022/01/01 00:57:08;;;;;;;35.72;11.98;;;;;;;10.60;100.00;101811.47;10139916;28;20072;-70
2022/01/01 01:02:04;;;;;;;25.92;9.93;;;;;;;10.58;100.00;101802.75;10131371;28;20460;-70
2022/01/01 01:07:01;;;;;;;31.25;11.18;;;;;;;10.58;100.00;101808.22;10131043;28;20053;-70
2022/01/01 01:11:57;;;;;;;34.13;11.25;;;;;;;10.61;100.00;101813.13;10125962;28;20701;-70
2022/01/01 01:16:54;;;;;;;34.22;11.77;;;;;;;10.63;100.00;101805.44;10141509;28;20046;-70
2022/01/01 01:21:51;;;;;;;30.90;12.68;;;;;;;10.62;100.00;101809.28;10137068;28;20116;-69
2022/01/01 01:26:50;;;;;;;28.10;11.07;;;;;;;10.64;100.00;101811.72;10141692;28;20050;-70
2022/01/01 01:31:47;;;;;;;31.58;11.35;;;;;;;10.64;100.00;101812.53;10124699;28;20101;-70
2022/01/01 01:36:43;;;;;;;32.35;10.60;;;;;;;10.61;100.00;101813.13;10125459;28;20054;-70
2022/01/01 01:41:42;;;;;;;33.08;11.65;;;;;;;10.63;100.00;101826.50;10132780;28;20104;-70
2022/01/01 01:46:39;;;;;;;33.75;11.30;;;;;;;10.61;100.00;101818.59;10130015;28;20047;-70
2022/01/01 01:51:36;;;;;;;30.10;10.68;;;;;;;10.63;100.00;101821.84;10120412;28;20069;-70
2022/01/01 01:56:35;;;;;;;22.38;9.05;;;;;;;10.63;100.00;101819.13;10135810;28;20043;-70
2022/01/01 02:01:32;;;;;;;24.48;9.40;;;;;;;10.61;100.00;101810.38;10145215;28;20553;-70
2022/01/01 02:06:29;;;;;;;32.88;10.80;;;;;;;10.61;100.00;101802.19;10126935;28;20499;-70
2022/01/01 02:11:27;;;;;;;34.83;11.80;;;;;;;10.63;100.00;101794.50;10138718;28;20062;-70
2022/01/01 02:21:21;;;;;;;39.13;13.15;;;;;;;10.61;100.00;101801.38;10137189;28;20412;-70
2022/01/01 02:26:18;;;;;;;35.88;11.00;;;;;;;10.59;100.00;101820.81;10135988;28;20108;-69
2022/01/01 02:31:15;;;;;;;30.60;11.10;;;;;;;10.58;100.00;101851.97;10134927;28;20557;-70
2022/01/01 02:36:12;;;;;;;42.00;10.65;;;;;;;10.62;100.00;101847.56;10123520;28;20404;-70
2022/01/01 02:41:09;;;;;;;31.50;10.82;;;;;;;10.58;100.00;101868.38;10111756;28;20065;-71
2022/01/01 02:46:05;;;;;;;23.23;9.65;;;;;;;10.55;100.00;101841.63;10137379;28;20116;-71
2022/01/01 02:51:02;;;;;;;30.23;10.27;;;;;;;10.62;100.00;101858.50;10136094;28;20521;-70
2022/01/01 02:55:58;;;;;;;31.58;11.60;;;;;;;10.58;100.00;101862.91;10142791;28;20479;-70
2022/01/01 03:00:55;;;;;;;36.13;10.52;;;;;;;10.59;100.00;101861.81;10146631;28;20077;-70
2022/01/01 03:05:51;;;;;;;37.72;12.07;;;;;;;10.60;100.00;101854.44;10143882;28;20050;-70
2022/01/01 03:10:49;;;;;;;24.42;9.95;;;;;;;10.60;100.00;101863.44;10126406;28;20466;-70
2022/01/01 03:15:46;;;;;;;39.83;12.68;;;;;;;10.60;100.00;101849.75;10128505;28;20578;-70
2022/01/01 03:20:44;;;;;;;38.83;12.18;;;;;;;10.56;100.00;101858.84;10138496;28;20050;-69
2022/01/01 03:25:40;;;;;;;29.98;10.40;;;;;;;10.61;100.00;101856.88;10129498;28;20124;-69
2022/01/01 03:30:37;;;;;;;38.38;12.40;;;;;;;10.56;100.00;101878.81;10133026;28;20105;-71
2022/01/01 03:35:34;;;;;;;35.83;12.27;;;;;;;10.59;100.00;101883.69;10150089;28;20514;-70
2022/01/01 03:40:30;;;;;;;40.60;13.23;;;;;;;10.59;100.00;101878.22;10136222;28;20074;-71
2022/01/01 03:45:27;;;;;;;33.53;11.65;;;;;;;10.58;100.00;101882.06;10131038;28;20129;-71
2022/01/01 03:50:23;;;;;;;34.92;12.05;;;;;;;10.56;100.00;101875.25;10118989;28;20461;-70
2022/01/01 03:55:20;;;;;;;36.08;12.25;;;;;;;10.57;100.00;101882.38;10135922;28;20074;-70
2022/01/01 04:00:16;;;;;;;42.22;12.68;;;;;;;10.56;100.00;101876.09;10134985;28;20078;-71
2022/01/01 04:05:13;;;;;;;39.30;13.48;;;;;;;10.57;100.00;101877.72;10146933;28;20558;-69
2022/01/01 04:10:10;;;;;;;26.77;9.90;;;;;;;10.54;100.00;101878.28;10132750;28;20077;-69
2022/01/01 04:15:07;;;;;;;39.30;13.50;;;;;;;10.55;100.00;101879.09;10122024;28;20097;-69
2022/01/01 04:20:05;;;;;;;43.35;14.02;;;;;;;10.55;100.00;101888.13;10139747;28;20511;-68
2022/01/01 04:25:01;;;;;;;37.72;14.50;;;;;;;10.53;100.00;101901.25;10125709;28;20157;-70
2022/01/01 04:29:58;;;;;;;41.28;14.02;;;;;;;10.54;100.00;101916.56;10124323;28;20586;-70
2022/01/01 04:34:54;;;;;;;39.10;15.15;;;;;;;10.59;100.00;101930.19;10147765;28;20066;-70
2022/01/01 04:39:56;;;;;;;41.20;14.20;;;;;;;10.56;100.00;101936.25;10148201;28;20092;-72
2022/01/01 04:44:53;;;;;;;34.70;14.33;;;;;;;10.59;100.00;101924.72;10143623;28;20141;-72
2022/01/01 04:49:50;;;;;;;37.70;16.55;;;;;;;10.56;100.00;101919.00;10121110;28;20463;-71
2022/01/01 04:54:46;;;;;;;47.45;16.85;;;;;;;10.57;100.00;101926.94;10127217;28;20684;-70
2022/01/01 04:59:43;;;;;;;39.08;16.83;;;;;;;10.56;100.00;101914.38;10129581;28;20141;-70
2022/01/01 05:04:40;;;;;;;53.30;19.17;;;;;;;10.58;100.00;101922.28;10134682;28;20085;-72
2022/01/01 05:09:36;;;;;;;41.35;18.13;;;;;;;10.58;100.00;101944.16;10139182;28;20077;-68
2022/01/01 05:14:34;;;;;;;39.75;17.50;;;;;;;10.59;100.00;101946.59;10142066;28;20445;-69
2022/01/01 05:19:31;;;;;;;43.75;18.15;;;;;;;10.57;100.00;101954.28;10143463;28;20089;-72
2022/01/01 05:24:27;;;;;;;41.53;17.00;;;;;;;10.56;100.00;101958.13;10141331;28;20108;-69
2022/01/01 05:29:27;;;;;;;48.25;20.52;;;;;;;10.57;100.00;101959.75;10147827;28;20054;-70
2022/01/01 05:34:24;;;;;;;52.28;20.48;;;;;;;10.60;100.00;101959.16;10100687;28;20814;-72
2022/01/01 05:39:21;;;;;;;45.03;19.95;;;;;;;10.61;100.00;101966.28;10119004;28;20572;-71
2022/01/01 05:44:18;;;;;;;45.08;19.80;;;;;;;10.60;100.00;101975.56;10124321;28;20679;-70
2022/01/01 05:49:14;;;;;;;44.53;19.38;;;;;;;10.63;100.00;101975.03;10129978;28;20164;-70
2022/01/01 05:54:11;;;;;;;50.88;19.95;;;;;;;10.61;100.00;101985.44;10132791;28;20452;-70
2022/01/01 05:59:07;;;;;;;41.15;17.58;;;;;;;10.61;100.00;101985.44;10129026;28;20105;-71
2022/01/01 06:04:04;;;;;;;53.60;21.65;;;;;;;10.63;100.00;101980.50;10127414;28;20096;-71
2022/01/01 06:09:00;;;;;;;55.45;20.52;;;;;;;10.64;100.00;101982.09;10136356;28;20062;-71
2022/01/01 06:13:57;;;;;;;46.25;19.88;;;;;;;10.61;100.00;101981.88;10124235;28;20038;-68
2022/01/01 06:18:53;;;;;;;49.28;19.65;;;;;;;10.58;100.00;101983.25;10135401;28;20042;-68
2022/01/01 06:23:50;;;;;;;49.38;18.95;;;;;;;10.61;100.00;101992.81;10149243;28;20070;-71
2022/01/01 06:28:46;;;;;;;49.28;18.35;;;;;;;10.56;100.00;101992.84;10131437;28;20043;-71
2022/01/01 06:33:43;;;;;;;43.85;18.08;;;;;;;10.59;100.00;102001.31;10141771;28;20081;-70
2022/01/01 06:38:44;;;;;;;44.47;17.92;;;;;;;10.60;100.00;102013.88;10133489;28;20038;-68
2022/01/01 06:43:41;;;;;;;42.30;16.85;;;;;;;10.59;100.00;102023.19;10118159;28;20387;-71
2022/01/01 06:48:38;;;;;;;51.63;18.48;;;;;;;10.60;100.00;102024.81;10121303;28;20081;-72
2022/01/01 06:53:34;;;;;;;44.42;16.42;;;;;;;10.56;100.00;102018.28;10153862;28;20495;-72
2022/01/01 06:58:34;;;;;;;36.63;15.45;;;;;;;10.58;100.00;102037.94;10141805;28;20430;-70
2022/01/01 07:03:31;;;;;;;47.83;16.50;;;;;;;10.56;100.00;102040.19;10135664;28;20549;-68
2022/01/01 07:08:28;;;;;;;45.35;17.02;;;;;;;10.55;100.00;102032.25;10147057;28;20042;-66
2022/01/01 07:13:25;;;;;;;39.47;15.95;;;;;;;10.58;100.00;102043.41;10148645;28;20108;-71
2022/01/01 07:18:21;;;;;;;48.60;16.00;;;;;;;10.58;100.00;102032.47;10138371;28;20109;-72
2022/01/01 07:23:18;;;;;;;39.75;15.23;;;;;;;10.55;100.00;102027.59;10140552;28;20084;-72
2022/01/01 07:28:16;;;;;;;55.70;17.02;;;;;;;10.58;100.00;102053.53;10140525;28;20046;-70
2022/01/01 07:33:13;;;;;;;42.35;17.27;;;;;;;10.57;100.00;102052.72;10125563;28;20141;-70
2022/01/01 07:38:10;;;;;;;51.10;16.65;;;;;;;10.55;100.00;102065.06;10131142;28;20047;-69
2022/01/01 07:43:14;;;;;;;43.33;17.25;;;;;;;10.54;100.00;102067.00;10126030;28;20050;-70
2022/01/01 07:48:11;;;;;;;45.58;17.05;;;;;;;10.57;100.00;102074.63;10138714;28;20085;-70
2022/01/01 07:53:09;;;;;;;48.50;16.30;;;;;;;10.58;100.00;102070.75;10149184;28;20046;-72
2022/01/01 07:58:05;;;;;;;50.97;17.00;;;;;;;10.55;100.00;102071.34;10143747;28;20053;-71
2022/01/01 08:03:02;;;;;;;49.35;17.88;;;;;;;10.53;100.00;102084.47;10143709;28;20049;-70
2022/01/01 08:07:59;;;;;;;57.03;18.75;;;;;;;10.55;100.00;102082.28;10145514;28;20061;-70
2022/01/01 08:12:59;;;;;;;45.92;17.08;;;;;;;10.56;100.00;102105.81;10140139;28;20046;-73
2022/01/01 08:17:55;;;;;;;47.08;17.90;;;;;;;10.58;100.00;102109.06;10146076;28;20484;-72
2022/01/01 08:22:58;;;;;;;44.85;16.63;;;;;;;10.56;100.00;102116.75;10118669;28;20133;-71
2022/01/01 08:27:55;;;;;;;51.90;17.25;;;;;;;10.62;100.00;102118.34;10128021;28;20577;-70
2022/01/01 08:32:51;;;;;;;45.80;17.75;;;;;;;10.68;100.00;102109.00;10145465;28;20050;-70
2022/01/01 08:37:48;;;;;;;62.00;20.85;;;;;;;10.71;100.00;102113.88;10160960;28;20140;-70
2022/01/01 08:42:44;;;;;;;48.65;18.05;;;;;;;10.69;100.00;102116.09;10143772;28;20078;-70
2022/01/01 08:47:41;;;;;;;56.17;20.35;;;;;;;10.73;100.00;102119.09;10140588;28;20558;-70
2022/01/01 08:52:38;;;;;;;56.33;20.77;;;;;;;10.69;100.00;102127.03;10140291;28;20426;-70
2022/01/01 08:57:34;;;;;;;64.78;21.10;;;;;;;10.77;100.00;102142.03;10143108;28;20070;-71
2022/01/01 09:02:31;;;;;;;65.28;21.00;;;;;;;10.74;100.00;102151.66;10135069;28;20126;-70
2022/01/01 09:07:30;;;;;;;54.47;20.27;;;;;;;10.74;100.00;102135.22;10139025;28;20046;-69
2022/01/01 09:12:28;;;;;;;60.38;21.60;;;;;;;10.76;100.00;102142.31;10134075;28;20046;-70
2022/01/01 09:17:25;;;;;;;72.35;23.30;;;;;;;10.78;100.00;102156.53;10137586;28;20509;-70
2022/01/01 09:22:21;;;;;;;72.40;26.80;;;;;;;10.82;100.00;102152.13;10142873;28;20125;-70
2022/01/01 09:27:18;;;;;;;71.97;26.30;;;;;;;10.89;100.00;102141.69;10144863;28;20104;-71
2022/01/01 09:32:14;;;;;;;73.70;26.45;;;;;;;10.86;100.00;102164.13;10145631;28;20134;-70
2022/01/01 09:37:13;;;;;;;75.45;27.23;;;;;;;10.87;100.00;102172.06;10144150;28;20070;-71
2022/01/01 09:42:11;;;;;;;71.95;27.05;;;;;;;10.91;100.00;102173.13;10143317;28;20051;-72
2022/01/01 09:47:08;;;;;;;73.40;27.27;;;;;;;10.93;100.00;102179.16;10145217;28;20070;-72
2022/01/01 09:52:05;;;;;;;68.38;30.15;;;;;;;10.89;100.00;102188.22;10140696;28;20139;-71
2022/01/01 09:57:02;;;;;;;75.22;32.17;;;;;;;10.87;100.00;102187.66;10141553;28;20073;-71
2022/01/01 10:01:59;;;;;;;91.00;33.30;;;;;;;10.89;100.00;102190.94;10160045;28;20046;-70
2022/01/01 10:07:05;;;;;;;85.88;38.50;;;;;;;10.93;100.00;102197.47;10142503;28;20105;-71
2022/01/01 10:12:05;;;;;;;87.90;36.53;;;;;;;10.96;100.00;102196.91;10140990;28;20481;-71
2022/01/01 10:17:13;;;;;;;107.32;41.92;;;;;;;10.96;100.00;102213.34;10141505;28;20170;-71
2022/01/01 10:22:13;;;;;;;94.88;40.47;;;;;;;10.92;100.00;102217.72;10144267;28;20045;-71
2022/01/01 10:32:26;;;;;;;94.20;42.90;;;;;;;10.91;100.00;102222.38;10146915;28;20050;-71
2022/01/01 10:37:30;;;;;;;105.40;45.80;;;;;;;10.99;100.00;102229.19;10141899;28;20056;-72
2022/01/01 10:42:27;;;;;;;97.25;42.67;;;;;;;10.97;100.00;102225.91;10137338;28;20097;-71
2022/01/01 10:47:32;;;;;;;101.47;47.45;;;;;;;10.91;100.00;102247.03;10141453;28;20050;-72
2022/01/01 10:52:30;;;;;;;95.53;42.63;;;;;;;10.90;100.00;102231.69;10141508;28;20442;-71
2022/01/01 10:57:35;;;;;;;96.55;41.58;;;;;;;10.90;100.00;102236.34;10140928;28;20117;-71
2022/01/01 11:02:33;;;;;;;96.68;44.70;;;;;;;10.90;100.00;102239.91;10133881;28;20047;-72
2022/01/01 11:07:31;;;;;;;100.35;43.53;;;;;;;10.88;100.00;102231.16;10142480;28;20662;-72
2022/01/01 11:12:29;;;;;;;86.68;39.50;;;;;;;10.88;100.00;102244.00;10143761;28;20085;-72
2022/01/01 11:17:26;;;;;;;80.60;38.88;;;;;;;10.90;100.00;102222.66;10142076;28;20054;-72
2022/01/01 11:22:23;;;;;;;79.75;35.40;;;;;;;10.92;100.00;102212.25;10139070;28;20162;-73
2022/01/01 11:27:20;;;;;;;86.57;36.25;;;;;;;10.94;100.00;102202.66;10139260;28;20121;-71
2022/01/01 11:32:22;;;;;;;75.97;33.53;;;;;;;11.08;100.00;102182.88;10141188;28;20069;-72
2022/01/01 11:37:22;;;;;;;67.80;31.33;;;;;;;11.12;100.00;102182.00;10142901;28;20077;-72
2022/01/01 11:42:20;;;;;;;70.70;32.53;;;;;;;11.18;100.00;102176.50;10143523;28;20532;-71
2022/01/01 11:47:19;;;;;;;73.00;29.98;;;;;;;11.23;100.00;102173.69;10147098;28;20510;-70
2022/01/01 11:52:41;;;;;;;64.45;30.05;;;;;;;11.31;100.00;102175.84;10145667;28;20129;-70
2022/01/01 11:57:38;;;;;;;58.08;27.77;;;;;;;11.29;100.00;102156.13;10144671;28;20042;-71
2022/01/01 12:02:36;;;;;;;61.83;28.65;;;;;;;11.39;100.00;102145.06;10146481;28;20132;-70
2022/01/01 12:07:42;;;;;;;59.83;26.77;;;;;;;11.51;100.00;102137.31;10148565;28;20525;-70
2022/01/01 12:12:45;;;;;;;47.10;22.88;;;;;;;11.48;100.00;102132.38;10143572;28;20078;-70
2022/01/01 12:17:48;;;;;;;42.47;21.88;;;;;;;11.45;100.00;102126.69;10141430;28;20101;-71
2022/01/01 12:22:49;;;;;;;49.88;22.27;;;;;;;11.53;100.00;102123.31;10144406;28;20046;-71
2022/01/01 12:27:48;;;;;;;48.75;21.13;;;;;;;11.52;100.00;102111.53;10142452;28;20185;-72
2022/01/01 12:32:45;;;;;;;47.30;21.13;;;;;;;11.58;100.00;102115.88;10138488;28;20077;-73
2022/01/01 12:37:41;;;;;;;48.67;22.13;;;;;;;11.58;100.00;102115.88;10156201;28;20046;-70
2022/01/01 12:42:45;;;;;;;48.42;21.98;;;;;;;11.57;100.00;102108.75;10144838;28;20458;-70
2022/01/01 12:47:42;;;;;;;49.42;24.17;;;;;;;11.62;100.00;102121.56;10144887;28;20577;-70
2022/01/01 12:52:39;;;;;;;51.72;23.63;;;;;;;11.64;100.00;102115.81;10142724;28;20042;-69
2022/01/01 12:57:36;;;;;;;56.10;24.20;;;;;;;11.57;100.00;102114.22;10141439;28;20094;-69
2022/01/01 13:02:33;;;;;;;61.42;27.90;;;;;;;11.61;100.00;102097.22;10137063;28;20050;-69
2022/01/01 13:07:29;;;;;;;61.30;29.40;;;;;;;11.62;100.00;102098.84;10140551;28;20463;-68
2022/01/01 13:12:31;;;;;;;61.75;28.85;;;;;;;11.54;100.00;102103.84;10142822;28;20057;-69
2022/01/01 13:17:27;;;;;;;65.32;32.22;;;;;;;11.48;100.00;102099.53;10141873;28;20147;-69
2022/01/01 13:22:30;;;;;;;68.38;34.97;;;;;;;11.49;100.00;102094.88;10132600;28;20085;-69
2022/01/01 13:27:30;;;;;;;60.97;30.85;;;;;;;11.41;100.00;102093.56;10123324;28;20051;-69
2022/01/01 13:32:27;;;;;;;67.07;31.02;;;;;;;11.47;100.00;102086.94;10117176;28;20089;-69
2022/01/01 13:37:24;;;;;;;63.47;32.45;;;;;;;11.48;100.00;102071.31;10134014;28;20138;-69
2022/01/01 13:42:21;;;;;;;67.00;28.75;;;;;;;11.53;100.00;102072.09;10124891;28;20054;-69
2022/01/01 13:47:28;;;;;;;58.95;31.23;;;;;;;11.56;100.00;102077.00;10120766;28;20162;-69
2022/01/01 13:52:31;;;;;;;64.22;31.08;;;;;;;11.65;100.00;102081.81;10124203;28;20109;-68
2022/01/01 13:57:29;;;;;;;57.90;28.55;;;;;;;11.71;100.00;102086.13;10132115;28;20124;-69
2022/01/01 14:02:27;;;;;;;54.58;27.50;;;;;;;11.71;100.00;102070.50;10141805;28;20046;-68
2022/01/01 14:07:24;;;;;;;53.25;25.90;;;;;;;11.71;100.00;102080.66;10140414;28;20058;-69
2022/01/01 14:12:21;;;;;;;49.20;25.13;;;;;;;11.67;100.00;102069.44;10140208;28;20050;-70
2022/01/01 14:17:18;;;;;;;57.08;25.35;;;;;;;11.68;100.00;102081.25;10137363;28;20046;-69
2022/01/01 14:22:14;;;;;;;47.42;25.08;;;;;;;11.71;100.00;102066.97;10140084;28;20054;-70
2022/01/01 14:27:11;;;;;;;53.08;25.00;;;;;;;11.65;100.00;102084.56;10135344;28;20138;-70
2022/01/01 14:32:15;;;;;;;57.63;25.83;;;;;;;11.72;100.00;102076.78;10120878;28;20086;-70
2022/01/01 14:37:14;;;;;;;49.55;24.77;;;;;;;11.72;100.00;102093.22;10116348;28;20042;-70
2022/01/01 14:42:11;;;;;;;49.08;25.98;;;;;;;11.76;100.00;102099.78;10149782;28;20089;-70
2022/01/01 14:47:18;;;;;;;45.17;22.90;;;;;;;11.77;100.00;102095.94;10161278;28;20690;-70
2022/01/01 14:52:23;;;;;;;51.92;26.65;;;;;;;11.77;100.00;102080.31;10140134;28;20116;-72
2022/01/01 14:57:38;;;;;;;46.10;24.55;;;;;;;11.77;100.00;102074.00;10143330;28;20133;-73
2022/01/01 15:02:34;;;;;;;47.47;21.40;;;;;;;11.77;100.00;102068.53;10145951;28;20511;-73
2022/01/01 15:07:34;;;;;;;46.65;23.75;;;;;;;11.75;100.00;102057.84;10145831;28;20084;-73
2022/01/01 15:12:31;;;;;;;43.97;23.70;;;;;;;11.74;100.00;102052.66;10148110;28;20070;-72
2022/01/01 15:17:31;;;;;;;42.85;23.33;;;;;;;11.71;100.00;102058.72;10138452;28;20081;-72
2022/01/01 15:22:49;;;;;;;42.88;22.45;;;;;;;11.71;100.00;102064.22;10148593;28;20116;-72
2022/01/01 15:27:48;;;;;;;45.10;23.98;;;;;;;11.67;100.00;102063.16;10150893;28;20085;-72
2022/01/01 15:43:01;;;;;;;50.72;24.10;;;;;;;11.53;100.00;102074.84;10124389;28;20042;-72
2022/01/01 15:47:58;;;;;;;49.80;26.92;;;;;;;11.57;100.00;102081.34;10145798;28;20503;-72
2022/01/01 15:52:54;;;;;;;47.63;24.05;;;;;;;11.59;100.00;102078.31;10137641;28;20089;-72
2022/01/01 15:57:55;;;;;;;45.15;22.35;;;;;;;11.63;100.00;102057.47;10132112;28;20109;-72
2022/01/01 16:03:00;;;;;;;44.15;23.38;;;;;;;11.66;100.00;102051.41;10135690;28;20749;-71
2022/01/01 16:08:00;;;;;;;45.17;22.83;;;;;;;11.67;100.00;102039.31;10133927;28;20412;-72
2022/01/01 16:12:59;;;;;;;46.65;23.50;;;;;;;11.69;100.00;102033.56;10144805;28;20847;-72
2022/01/01 16:17:55;;;;;;;41.83;22.83;;;;;;;11.69;100.00;102017.09;10144920;28;20085;-72
2022/01/01 16:23:01;;;;;;;39.47;22.38;;;;;;;11.66;100.00;102007.56;10129599;28;20062;-72
2022/01/01 16:27:58;;;;;;;41.28;23.85;;;;;;;11.63;100.00;101997.19;10147997;28;20503;-73
2022/01/01 16:32:55;;;;;;;40.30;21.35;;;;;;;11.62;100.00;102000.22;10140043;28;20062;-73
2022/01/01 16:37:52;;;;;;;43.58;21.25;;;;;;;11.54;100.00;102005.25;10133548;28;20156;-73
2022/01/01 16:43:01;;;;;;;49.08;22.67;;;;;;;11.59;100.00;102007.09;10157229;28;20542;-73
2022/01/01 16:48:07;;;;;;;43.85;19.58;;;;;;;11.59;100.00;102002.44;10146708;28;20050;-74
2022/01/01 16:53:08;;;;;;;43.17;20.50;;;;;;;11.49;100.00;102021.75;10143193;28;20054;-72
2022/01/01 16:58:14;;;;;;;45.95;21.70;;;;;;;11.51;100.00;102016.78;10125912;28;20051;-71
2022/01/01 17:03:38;;;;;;;31.55;18.33;;;;;;;11.58;100.00;102008.22;10132208;28;20057;-70
2022/01/01 17:08:36;;;;;;;36.15;17.35;;;;;;;11.54;100.00;102016.19;10129271;28;20120;-71
2022/01/01 17:13:36;;;;;;;28.23;15.27;;;;;;;11.57;100.00;102007.38;10147258;28;20513;-70
2022/01/01 17:19:21;;;;;;;31.95;16.15;;;;;;;11.65;100.00;101994.16;10141153;28;20069;-70
2022/01/01 17:24:26;;;;;;;30.63;14.43;;;;;;;11.59;100.00;101980.53;10118377;28;20069;-71
2022/01/01 17:29:28;;;;;;;24.05;11.60;;;;;;;11.64;100.00;101976.09;10143962;28;20089;-71
2022/01/01 17:34:43;;;;;;;21.00;8.77;;;;;;;11.68;100.00;101966.19;10141932;28;20522;-73
2022/01/01 17:39:58;;;;;;;21.92;9.30;;;;;;;11.71;100.00;101960.09;10140134;28;20047;-73
2022/01/01 17:44:55;;;;;;;18.80;8.75;;;;;;;11.62;100.00;101972.81;10137998;28;20049;-73
2022/01/01 17:49:57;;;;;;;17.70;7.78;;;;;;;11.51;100.00;101966.66;10135272;28;20542;-73
2022/01/01 17:54:56;;;;;;;19.55;7.07;;;;;;;11.53;100.00;101948.84;10135494;28;20073;-72
2022/01/01 17:59:54;;;;;;;19.92;7.70;;;;;;;11.48;100.00;101943.41;10136945;28;20092;-72
2022/01/01 18:04:51;;;;;;;18.75;8.27;;;;;;;11.44;100.00;101945.13;10142180;28;20090;-73
2022/01/01 18:09:54;;;;;;;15.65;7.18;;;;;;;11.45;100.00;101938.53;10142583;28;20129;-70
2022/01/01 18:14:56;;;;;;;17.45;6.65;;;;;;;11.47;100.00;101919.88;10119025;28;20092;-70
2022/01/01 18:19:53;;;;;;;15.80;6.60;;;;;;;11.48;100.00;101907.00;10136962;28;20054;-71
2022/01/01 18:25:03;;;;;;;11.30;5.45;;;;;;;11.49;100.00;101903.16;10146172;28;20138;-69
2022/01/01 18:30:01;;;;;;;15.73;6.28;;;;;;;11.49;100.00;101914.94;10147206;28;20845;-70
2022/01/01 18:35:02;;;;;;;12.48;5.13;;;;;;;11.54;100.00;101912.13;10107149;28;20675;-71
2022/01/01 18:39:59;;;;;;;17.60;5.00;;;;;;;11.57;100.00;101922.47;10104453;28;20082;-70
2022/01/01 18:44:55;;;;;;;12.13;4.90;;;;;;;11.55;100.00;101908.25;10147024;28;20510;-71
2022/01/01 18:49:54;;;;;;;10.00;4.38;;;;;;;11.55;100.00;101880.88;10148155;28;20042;-70
2022/01/01 18:55:03;;;;;;;15.07;4.90;;;;;;;11.55;100.00;101871.84;10137248;28;20112;-71
2022/01/01 19:00:10;;;;;;;12.82;4.43;;;;;;;11.53;100.00;101883.13;10145001;28;20731;-72
2022/01/01 19:05:10;;;;;;;15.32;4.50;;;;;;;11.47;100.00;101870.59;10158569;28;20090;-72
2022/01/01 19:10:08;;;;;;;15.27;4.35;;;;;;;11.41;100.00;101866.28;10146716;28;20050;-72
2022/01/01 19:15:06;;;;;;;18.13;4.72;;;;;;;11.41;100.00;101862.75;10147636;28;20506;-72
2022/01/01 19:20:03;;;;;;;12.88;3.92;;;;;;;11.42;100.00;101859.72;10104139;28;20199;-71
2022/01/01 19:25:02;;;;;;;11.55;4.18;;;;;;;11.46;100.00;101859.91;10104035;28;20134;-72
2022/01/01 19:29:59;;;;;;;11.07;3.78;;;;;;;11.49;100.00;101856.59;10108671;28;20150;-72
2022/01/01 19:34:56;;;;;;;13.85;3.97;;;;;;;11.51;100.00;101836.03;10148776;28;20046;-72
2022/01/01 19:39:55;;;;;;;10.77;3.75;;;;;;;11.50;100.00;101872.72;10144731;28;20101;-72
2022/01/01 19:45:02;;;;;;;10.70;3.55;;;;;;;11.49;100.00;101860.16;10142276;28;20038;-72
2022/01/01 19:50:07;;;;;;;14.98;4.13;;;;;;;11.49;100.00;101865.63;10142105;28;20547;-72
2022/01/01 19:55:04;;;;;;;14.73;3.58;;;;;;;11.48;100.00;101864.00;10144357;28;20141;-72
2022/01/01 20:00:02;;;;;;;8.05;2.80;;;;;;;11.49;100.00;101846.47;10141901;28;20082;-72
2022/01/01 20:04:58;;;;;;;16.48;4.10;;;;;;;11.52;100.00;101821.22;10140411;28;20133;-73
2022/01/01 20:09:55;;;;;;;9.98;3.15;;;;;;;11.51;100.00;101830.56;10141177;28;20109;-72
2022/01/01 20:14:52;;;;;;;14.43;4.10;;;;;;;11.52;100.00;101826.69;10140848;28;20081;-73
2022/01/01 20:19:49;;;;;;;15.73;3.03;;;;;;;11.51;100.00;101822.34;10146489;28;20046;-72
2022/01/01 20:24:46;;;;;;;9.65;3.10;;;;;;;11.48;100.00;101792.78;10141409;28;20077;-72
2022/01/01 20:29:43;;;;;;;11.40;3.05;;;;;;;11.48;100.00;101770.88;10141565;28;20054;-72
2022/01/01 20:34:40;;;;;;;11.32;3.70;;;;;;;11.46;100.00;101767.63;10148666;28;20038;-72
2022/01/01 20:39:36;;;;;;;7.30;2.58;;;;;;;11.39;100.00;101728.84;10145650;28;20086;-72
2022/01/01 20:44:34;;;;;;;10.02;3.22;;;;;;;11.38;100.00;101727.22;10147007;28;20046;-72
2022/01/01 20:49:31;;;;;;;9.85;3.95;;;;;;;11.41;100.00;101742.25;10141949;28;20113;-69
2022/01/01 20:54:28;;;;;;;10.93;3.28;;;;;;;11.38;100.00;101736.25;10141787;28;20568;-69
2022/01/01 20:59:25;;;;;;;11.30;2.42;;;;;;;11.36;100.00;101745.88;10140937;28;20050;-69
2022/01/01 21:04:24;;;;;;;9.23;2.90;;;;;;;11.39;100.00;101737.06;10142395;28;20046;-69
2022/01/01 21:09:22;;;;;;;10.48;3.35;;;;;;;11.37;100.00;101711.91;10136204;28;20061;-71
2022/01/01 21:14:22;;;;;;;6.55;2.58;;;;;;;11.33;100.00;101713.63;10141875;28;20046;-70
2022/01/01 21:19:20;;;;;;;7.55;2.38;;;;;;;11.30;100.00;101714.19;10144355;28;20513;-70
2022/01/01 21:24:16;;;;;;;9.35;2.95;;;;;;;11.30;100.00;101719.69;10135684;28;20050;-70
2022/01/01 21:29:13;;;;;;;8.50;2.47;;;;;;;11.27;100.00;101709.34;10140631;28;20393;-70
2022/01/01 21:34:09;;;;;;;6.97;2.88;;;;;;;11.25;100.00;101681.44;10149237;28;20462;-70
2022/01/01 21:39:06;;;;;;;7.65;2.80;;;;;;;11.23;100.00;101667.25;10119074;28;20038;-70
2022/01/01 21:44:03;;;;;;;8.20;2.50;;;;;;;11.22;100.00;101662.88;10137742;28;20054;-69
2022/01/01 21:48:59;;;;;;;7.38;2.22;;;;;;;11.23;100.00;101678.19;10130755;28;20201;-70
2022/01/01 21:53:56;;;;;;;8.75;2.30;;;;;;;11.25;100.00;101667.75;10118879;28;20042;-71
2022/01/01 21:58:52;;;;;;;8.57;2.00;;;;;;;11.26;100.00;101653.78;10099431;28;20097;-69
2022/01/01 22:03:50;;;;;;;8.82;3.10;;;;;;;11.27;100.00;101665.53;10136348;28;20498;-70
2022/01/01 22:08:46;;;;;;;5.30;1.90;;;;;;;11.30;100.00;101670.41;10135172;28;20054;-70
2022/01/01 22:13:46;;;;;;;4.85;2.13;;;;;;;11.31;100.00;101677.53;10140580;28;20050;-69
2022/01/01 22:18:42;;;;;;;7.07;2.00;;;;;;;11.32;100.00;101658.03;10138674;28;20074;-68
2022/01/01 22:23:39;;;;;;;8.88;3.25;;;;;;;11.30;100.00;101700.50;10120897;28;20145;-67
2022/01/01 22:28:35;;;;;;;8.93;2.05;;;;;;;11.34;100.00;101720.72;10137629;28;20113;-68
2022/01/01 22:33:32;;;;;;;6.75;2.47;;;;;;;11.37;100.00;101720.09;10135112;28;20074;-68